Time,TemperatureF,DewpointF,PressureIn,WindDirection,WindDirectionDegrees,WindSpeedMPH,WindSpeedGustMPH,Humidity,HourlyPrecipIn,Conditions,Clouds,dailyrainin,SolarRadiationWatts/m^2,SoftwareType,DateUTC
2013-03-06 00:00:00,36.2,32.7,30.00,NNE,20,2.3,3.5,87,0.00,CLR,,0.00,0.0,WeatherDisplay:10.37,2013-03-06 05:00:00,
2013-03-06 00:05:00,36.2,32.7,30.00,NNE,20,2.2,3.5,87,0.00,CLR,,0.00,0.0,WeatherDisplay:10.37,2013-03-06 05:05:00,
2013-03-06 00:10:00,36.2,32.7,30.00,NNE,20,2.8,4.6,87,0.00,CLR,,0.00,0.0,WeatherDisplay:10.37,2013-03-06 05:10:00,
2013-03-06 00:15:00,36.5,33.0,30.00,NNE,20,5.1,8.1,87,0.00,CLR,,0.00,0.0,WeatherDisplay:10.37,2013-03-06 05:15:00,
2013-03-06 00:20:00,36.8,33.3,30.00,NNE,20,2.8,4.6,87,0.00,CLR,,0.00,0.0,WeatherDisplay:10.37,2013-03-06 05:20:00,
2013-03-06 00:25:00,36.8,33.3,30.00,NNE,20,3.9,5.8,87,0.00,CLR,,0.00,0.0,WeatherDisplay:10.37,2013-03-06 05:25:00,
2013-03-06 00:30:00,36.9,33.4,30.00,NNE,20,3.2,4.6,87,0.00,CLR,,0.00,0.0,WeatherDisplay:10.37,2013-03-06 05:30:00,
2013-03-06 00:35:00,36.8,33.3,30.00,NNE,20,4.2,6.9,87,0.00,CLR,,0.00,0.0,WeatherDisplay:10.37,2013-03-06 05:35:00,
2013-03-06 00:40:00,36.7,33.2,30.00,NNE,20,3.8,6.9,87,0.00,CLR,,0.00,0.0,WeatherDisplay:10.37,2013-03-06 05:40:00,
2013-03-06 00:45:00,36.6,33.1,30.00,NNE,20,2.9,4.6,87,0.00,CLR,,0.00,0.0,WeatherDisplay:10.37,2013-03-06 05:45:00,
2013-03-06 00:50:00,36.6,33.1,30.00,NNE,20,3.6,6.9,87,0.00,CLR,,0.00,0.0,WeatherDisplay:10.37,2013-03-06 05:50:00,
2013-03-06 00:55:00,36.5,33.0,30.00,NNE,20,3.9,5.8,87,0.00,CLR,,0.00,0.0,WeatherDisplay:10.37,2013-03-06 05:55:00,
2013-03-06 01:00:00,36.5,33.0,30.00,NNE,20,4.2,10.4,87,0.00,CLR,,0.00,0.0,WeatherDisplay:10.37,2013-03-06 06:00:00,
2013-03-06 01:05:00,36.4,32.9,30.00,NNE,20,2.8,5.8,87,0.00,CLR,,0.00,0.0,WeatherDisplay:10.37,2013-03-06 06:05:00,
2013-03-06 01:10:00,36.3,32.8,30.00,NNE,20,7.3,11.5,87,0.00,CLR,,0.00,0.0,WeatherDisplay:10.37,2013-03-06 06:10:00,
2013-03-06 01:15:00,36.4,32.9,30.00,NNE,20,4.0,5.8,87,0.00,CLR,,0.00,0.0,WeatherDisplay:10.37,2013-03-06 06:15:00,
2013-03-06 01:20:00,36.4,32.9,30.00,NNE,20,3.3,6.9,87,0.00,CLR,,0.00,0.0,WeatherDisplay:10.37,2013-03-06 06:20:00,
2013-03-06 01:25:00,36.4,32.9,30.00,NNE,20,3.8,5.8,87,0.00,CLR,,0.00,0.0,WeatherDisplay:10.37,2013-03-06 06:25:00,
2013-03-06 01:30:00,36.4,32.9,30.00,NNE,20,4.0,11.5,87,0.00,CLR,,0.00,0.0,WeatherDisplay:10.37,2013-03-06 06:30:00,
2013-03-06 01:35:00,36.2,32.7,30.00,NNE,20,4.8,8.1,87,0.00,CLR,,0.00,0.0,WeatherDisplay:10.37,2013-03-06 06:35:00,
2013-03-06 01:40:00,36.2,32.7,30.00,NNE,20,5.3,9.2,87,0.00,CLR,,0.00,0.0,WeatherDisplay:10.37,2013-03-06 06:40:00,
2013-03-06 01:45:00,36.1,32.6,30.00,NNE,20,5.2,9.0,87,0.00,CLR,,0.00,0.0,WeatherDisplay:10.37,2013-03-06 06:45:00,
2013-03-06 01:50:00,36.1,32.6,30.00,NNE,20,6.2,10.4,87,0.00,CLR,,0.00,0.0,WeatherDisplay:10.37,2013-03-06 06:50:00,
2013-03-06 01:55:00,36.0,32.5,30.00,NNE,20,5.2,8.1,87,0.00,CLR,,0.00,0.0,WeatherDisplay:10.37,2013-03-06 06:55:00,
2013-03-06 02:00:00,35.9,32.4,30.00,NNE,20,0.0,0.0,87,0.00,CLR,,0.00,0.0,WeatherDisplay:10.37,2013-03-06 07:00:00,
2013-03-06 02:05:00,35.9,32.4,30.00,NNE,20,4.0,9.2,87,0.00,CLR,,0.00,0.0,WeatherDisplay:10.37,2013-03-06 07:05:00,
2013-03-06 02:10:00,35.9,32.4,30.00,NNE,20,2.2,6.9,87,0.00,CLR,,0.00,0.0,WeatherDisplay:10.37,2013-03-06 07:10:00,
2013-03-06 02:15:00,36.0,32.5,30.00,NNE,20,2.5,4.6,87,0.00,CLR,,0.00,0.0,WeatherDisplay:10.37,2013-03-06 07:15:00,
2013-03-06 02:20:00,36.1,32.6,30.00,NNE,20,2.4,4.6,87,0.00,CLR,,0.00,0.0,WeatherDisplay:10.37,2013-03-06 07:20:00,
2013-03-06 02:25:00,36.1,32.6,30.00,NNE,20,3.7,5.8,87,0.00,CLR,,0.00,0.0,WeatherDisplay:10.37,2013-03-06 07:25:00,
2013-03-06 02:30:00,36.1,32.3,30.00,NNE,20,5.3,6.9,86,0.00,CLR,,0.00,0.0,WeatherDisplay:10.37,2013-03-06 07:30:00,
2013-03-06 02:35:00,36.1,32.3,30.00,NNE,20,0.6,2.3,86,0.00,CLR,,0.00,0.0,WeatherDisplay:10.37,2013-03-06 07:35:00,
2013-03-06 02:40:00,36.1,32.3,30.00,NNE,20,4.0,5.8,86,0.00,CLR,,0.00,0.0,WeatherDisplay:10.37,2013-03-06 07:40:00,
2013-03-06 02:45:00,36.0,32.2,30.00,NNE,20,4.8,5.8,86,0.00,CLR,,0.00,0.0,WeatherDisplay:10.37,2013-03-06 07:45:00,
2013-03-06 02:50:00,36.1,32.3,30.00,NNE,20,1.9,3.5,86,0.00,CLR,,0.00,0.0,WeatherDisplay:10.37,2013-03-06 07:50:00,
2013-03-06 02:55:00,36.0,32.2,30.00,NNE,20,4.0,6.9,86,0.00,CLR,,0.00,0.0,WeatherDisplay:10.37,2013-03-06 07:55:00,
2013-03-06 03:00:00,36.1,32.3,30.00,NNE,20,3.8,6.9,86,0.00,CLR,,0.00,0.0,WeatherDisplay:10.37,2013-03-06 08:00:00,
2013-03-06 03:05:00,36.1,32.3,30.00,NNE,20,2.0,6.9,86,0.00,CLR,,0.00,0.0,WeatherDisplay:10.37,2013-03-06 08:05:00,
2013-03-06 03:10:00,36.0,32.2,30.00,NNE,20,3.6,6.9,86,0.00,CLR,,0.00,0.0,WeatherDisplay:10.37,2013-03-06 08:10:00,
2013-03-06 03:15:00,36.0,32.2,30.01,NNE,20,2.4,4.0,86,0.00,CLR,,0.00,0.0,WeatherDisplay:10.37,2013-03-06 08:15:00,
2013-03-06 03:20:00,35.9,32.1,30.01,NNE,20,3.1,8.1,86,0.00,CLR,,0.00,0.0,WeatherDisplay:10.37,2013-03-06 08:20:00,
2013-03-06 03:25:00,36.0,32.2,30.01,NNE,20,2.9,4.6,86,0.00,CLR,,0.00,0.0,WeatherDisplay:10.37,2013-03-06 08:25:00,
2013-03-06 03:30:00,36.0,32.2,30.01,NNE,20,2.8,5.8,86,0.00,CLR,,0.00,0.0,WeatherDisplay:10.37,2013-03-06 08:30:00,
2013-03-06 03:35:00,36.2,32.1,30.01,NNE,20,1.0,3.5,85,0.00,CLR,,0.00,0.0,WeatherDisplay:10.37,2013-03-06 08:35:00,
2013-03-06 03:40:00,36.1,32.0,30.01,NNE,20,3.2,6.9,85,0.00,CLR,,0.00,0.0,WeatherDisplay:10.37,2013-03-06 08:40:00,
2013-03-06 03:45:00,36.0,31.9,30.00,NNE,20,2.2,4.6,85,0.00,CLR,,0.00,0.0,WeatherDisplay:10.37,2013-03-06 08:45:00,
2013-03-06 03:50:00,36.1,32.0,30.00,NNE,20,3.3,9.0,85,0.00,CLR,,0.00,0.0,WeatherDisplay:10.37,2013-03-06 08:50:00,
2013-03-06 03:55:00,36.2,32.1,30.00,NNE,20,6.0,11.5,85,0.00,CLR,,0.00,0.0,WeatherDisplay:10.37,2013-03-06 08:55:00,
2013-03-06 04:00:00,36.2,32.1,30.01,NNE,20,4.9,5.8,85,0.00,CLR,,0.00,0.0,WeatherDisplay:10.37,2013-03-06 09:00:00,
2013-03-06 04:05:00,36.2,32.1,30.01,NNE,20,3.9,9.2,85,0.00,CLR,,0.00,0.0,WeatherDisplay:10.37,2013-03-06 09:05:00,
2013-03-06 04:10:00,36.2,32.1,30.01,NNE,20,5.4,6.9,85,0.00,CLR,,0.00,0.0,WeatherDisplay:10.37,2013-03-06 09:10:00,
2013-03-06 04:15:00,36.2,32.1,30.01,NNE,20,3.0,9.2,85,0.00,CLR,,0.00,0.0,WeatherDisplay:10.37,2013-03-06 09:15:00,
2013-03-06 04:20:00,36.2,32.1,30.01,NNE,20,2.4,5.8,85,0.00,CLR,,0.00,0.0,WeatherDisplay:10.37,2013-03-06 09:20:00,
2013-03-06 04:25:00,36.2,32.1,30.01,NNE,20,2.2,6.9,85,0.00,CLR,,0.00,0.0,WeatherDisplay:10.37,2013-03-06 09:25:00,
2013-03-06 04:30:00,36.2,32.1,30.01,NNE,20,4.2,8.1,85,0.00,CLR,,0.00,0.0,WeatherDisplay:10.37,2013-03-06 09:30:00,
2013-03-06 04:35:00,36.2,32.1,30.01,NNE,20,3.8,5.8,85,0.00,CLR,,0.00,0.0,WeatherDisplay:10.37,2013-03-06 09:35:00,
2013-03-06 04:40:00,36.3,32.2,30.01,NNE,20,1.4,6.9,85,0.00,CLR,,0.00,0.0,WeatherDisplay:10.37,2013-03-06 09:40:00,
2013-03-06 04:45:00,36.4,32.3,30.00,NNE,20,4.9,9.2,85,0.00,CLR,,0.00,0.0,WeatherDisplay:10.37,2013-03-06 09:45:00,
2013-03-06 04:50:00,36.4,32.3,30.00,NNE,20,3.6,6.0,85,0.00,CLR,,0.00,0.0,WeatherDisplay:10.37,2013-03-06 09:50:00,
2013-03-06 04:55:00,36.5,32.4,30.00,NNE,20,2.4,5.8,85,0.00,CLR,,0.00,0.0,WeatherDisplay:10.37,2013-03-06 09:55:00,
2013-03-06 05:00:00,36.5,32.4,30.00,NNE,20,3.0,9.0,85,0.00,RA,,0.01,0.0,WeatherDisplay:10.37,2013-03-06 10:00:00,
2013-03-06 05:05:00,36.5,32.4,30.00,NNE,20,4.1,8.1,85,0.01,RA,,0.01,0.0,WeatherDisplay:10.37,2013-03-06 10:05:00,
2013-03-06 05:10:00,36.6,32.5,30.00,NNE,20,4.2,9.2,85,0.01,,,0.01,0.0,WeatherDisplay:10.37,2013-03-06 10:10:00,
2013-03-06 05:15:00,36.5,32.4,30.00,NNE,20,4.3,6.9,85,0.01,CLR,,0.01,0.0,WeatherDisplay:10.37,2013-03-06 10:15:00,
2013-03-06 05:20:00,36.5,32.4,30.00,NNE,20,3.6,9.2,85,0.01,CLR,,0.01,0.0,WeatherDisplay:10.37,2013-03-06 10:20:00,
2013-03-06 05:25:00,36.4,32.3,30.00,NNE,20,2.1,8.1,85,0.01,CLR,,0.01,0.0,WeatherDisplay:10.37,2013-03-06 10:25:00,
2013-03-06 05:30:00,36.4,32.3,30.00,NNE,20,3.3,4.6,85,0.01,CLR,,0.01,0.0,WeatherDisplay:10.37,2013-03-06 10:30:00,
2013-03-06 05:35:00,36.3,32.2,30.00,NNE,20,2.0,4.6,85,0.01,CLR,,0.01,0.0,WeatherDisplay:10.37,2013-03-06 10:35:00,
2013-03-06 05:40:00,36.4,32.3,30.00,NNE,20,3.0,5.8,85,0.01,CLR,,0.01,0.0,WeatherDisplay:10.37,2013-03-06 10:40:00,
2013-03-06 05:45:00,36.4,32.3,30.00,NNE,20,5.1,8.1,85,0.02,RA,,0.02,0.0,WeatherDisplay:10.37,2013-03-06 10:45:00,
2013-03-06 05:50:00,36.4,32.3,30.00,NNE,20,2.8,3.5,85,0.02,RA,,0.02,0.0,WeatherDisplay:10.37,2013-03-06 10:50:00,
2013-03-06 05:55:00,36.4,32.3,30.00,NNE,20,3.0,4.6,85,0.02,,,0.02,0.0,WeatherDisplay:10.37,2013-03-06 10:55:00,
2013-03-06 06:00:00,36.5,32.4,30.00,NNE,20,2.0,8.0,85,0.00,OVC,,0.02,0.0,WeatherDisplay:10.37,2013-03-06 11:00:00,
2013-03-06 06:05:00,36.7,32.6,30.00,NNE,20,4.6,9.2,85,0.01,OVC,,0.02,0.0,WeatherDisplay:10.37,2013-03-06 11:05:00,
2013-03-06 06:10:00,36.8,32.7,30.00,NNE,20,3.9,8.1,85,0.01,OVC,,0.02,0.0,WeatherDisplay:10.37,2013-03-06 11:10:00,
2013-03-06 06:15:00,36.8,32.4,30.00,NNE,20,3.2,7.0,84,0.01,OVC,,0.02,0.0,WeatherDisplay:10.37,2013-03-06 11:15:00,
2013-03-06 06:20:00,36.9,32.5,30.00,NNE,20,6.9,13.8,84,0.01,OVC,,0.02,5.0,WeatherDisplay:10.37,2013-03-06 11:20:00,
2013-03-06 06:25:00,36.9,32.5,30.00,NNE,20,2.7,5.8,84,0.01,SCT,,0.02,5.0,WeatherDisplay:10.37,2013-03-06 11:25:00,
2013-03-06 06:30:00,37.0,32.6,30.01,NNE,20,6.0,10.4,84,0.01,BKN,,0.02,7.0,WeatherDisplay:10.37,2013-03-06 11:30:00,
2013-03-06 06:35:00,37.1,32.7,30.01,NNE,20,5.2,8.1,84,0.01,OVC,,0.02,9.0,WeatherDisplay:10.37,2013-03-06 11:35:00,
2013-03-06 06:40:00,37.1,32.7,30.01,NNE,20,4.4,6.9,84,0.01,OVC,,0.02,12.0,WeatherDisplay:10.37,2013-03-06 11:40:00,
2013-03-06 06:45:00,37.1,32.7,30.02,NNE,20,2.2,4.6,84,0.00,OVC,,0.02,14.0,WeatherDisplay:10.37,2013-03-06 11:45:00,
2013-03-06 06:50:00,37.2,32.8,30.02,NNE,20,2.4,4.6,84,0.00,OVC,,0.02,16.0,WeatherDisplay:10.37,2013-03-06 11:50:00,
2013-03-06 06:55:00,37.2,32.8,30.02,NNE,20,4.8,6.9,84,0.00,OVC,,0.02,11.0,WeatherDisplay:10.37,2013-03-06 11:55:00,
2013-03-06 07:00:00,37.2,32.8,30.02,NNE,20,3.0,9.2,84,0.01,RA,,0.03,14.0,WeatherDisplay:10.37,2013-03-06 12:00:00,
2013-03-06 07:05:00,37.3,32.9,30.02,NNE,20,5.8,10.4,84,0.01,RA,,0.03,16.0,WeatherDisplay:10.37,2013-03-06 12:05:00,
2013-03-06 07:10:00,37.3,32.9,30.02,NNE,20,5.3,11.5,84,0.01,OVC,,0.03,18.0,WeatherDisplay:10.37,2013-03-06 12:10:00,
2013-03-06 07:15:00,37.3,32.9,30.02,NNE,20,3.0,4.6,84,0.01,OVC,,0.03,14.0,WeatherDisplay:10.37,2013-03-06 12:15:00,
2013-03-06 07:20:00,37.3,32.9,30.02,NNE,20,6.0,6.9,84,0.01,OVC,,0.03,28.0,WeatherDisplay:10.37,2013-03-06 12:20:00,
2013-03-06 07:25:00,37.3,32.9,30.02,NNE,20,7.8,11.5,84,0.01,OVC,,0.03,33.0,WeatherDisplay:10.37,2013-03-06 12:25:00,
2013-03-06 07:30:00,37.3,32.9,30.02,NNE,20,6.7,12.7,84,0.02,RA,,0.04,35.0,WeatherDisplay:10.37,2013-03-06 12:30:00,
2013-03-06 07:35:00,37.3,32.9,30.02,NNE,20,6.2,11.5,84,0.02,RA,,0.04,40.0,WeatherDisplay:10.37,2013-03-06 12:35:00,
2013-03-06 07:40:00,37.4,33.0,30.02,NNE,20,9.9,19.6,84,0.02,OVC,,0.04,42.0,WeatherDisplay:10.37,2013-03-06 12:40:00,
2013-03-06 07:45:00,37.5,33.1,30.02,NNE,20,6.9,11.5,84,0.02,OVC,,0.04,53.0,WeatherDisplay:10.37,2013-03-06 12:45:00,
2013-03-06 07:50:00,37.6,33.2,30.02,NNE,20,5.1,13.8,84,0.02,OVC,,0.04,83.0,WeatherDisplay:10.37,2013-03-06 12:50:00,
2013-03-06 07:55:00,37.7,33.3,30.02,NNE,20,5.8,11.5,84,0.02,OVC,,0.04,56.0,WeatherDisplay:10.37,2013-03-06 12:55:00,
2013-03-06 08:00:00,37.7,33.3,30.01,NNE,20,6.1,10.4,84,0.01,OVC,,0.04,35.0,WeatherDisplay:10.37,2013-03-06 13:00:00,
2013-03-06 08:05:00,37.5,33.1,30.01,NNE,20,4.6,6.9,84,0.01,OVC,,0.05,53.0,WeatherDisplay:10.37,2013-03-06 13:05:00,
2013-03-06 08:10:00,37.5,33.1,30.01,NNE,20,5.2,13.8,84,0.02,RA,,0.05,37.0,WeatherDisplay:10.37,2013-03-06 13:10:00,
2013-03-06 08:15:00,37.6,33.2,30.01,NNE,20,6.8,11.5,84,0.02,RA,,0.05,40.0,WeatherDisplay:10.37,2013-03-06 13:15:00,
2013-03-06 08:20:00,37.5,33.1,30.01,NNE,20,4.5,17.3,84,0.02,OVC,,0.05,39.0,WeatherDisplay:10.37,2013-03-06 13:20:00,
2013-03-06 08:25:00,37.4,33.0,30.01,NNE,20,10.1,11.5,84,0.02,OVC,,0.05,33.0,WeatherDisplay:10.37,2013-03-06 13:25:00,
2013-03-06 08:30:00,37.4,33.0,30.01,NNE,20,3.9,8.1,84,0.01,OVC,,0.05,70.0,WeatherDisplay:10.37,2013-03-06 13:30:00,
2013-03-06 08:35:00,37.4,33.0,30.01,NNE,20,5.2,12.7,84,0.01,OVC,,0.05,58.0,WeatherDisplay:10.37,2013-03-06 13:35:00,
2013-03-06 08:40:00,37.4,33.0,30.01,NNE,20,7.6,11.5,84,0.01,OVC,,0.05,70.0,WeatherDisplay:10.37,2013-03-06 13:40:00,
2013-03-06 08:45:00,37.5,33.1,30.02,NNE,20,4.7,19.6,84,0.01,OVC,,0.05,97.0,WeatherDisplay:10.37,2013-03-06 13:45:00,
2013-03-06 08:50:00,37.7,33.3,30.02,NNE,20,5.7,11.5,84,0.01,OVC,,0.05,76.0,WeatherDisplay:10.37,2013-03-06 13:50:00,
2013-03-06 08:55:00,37.9,33.5,30.02,NNE,20,4.9,9.0,84,0.01,OVC,,0.05,76.0,WeatherDisplay:10.37,2013-03-06 13:55:00,
2013-03-06 09:00:00,37.9,33.5,30.03,NNE,20,6.8,10.4,84,0.01,OVC,,0.05,86.0,WeatherDisplay:10.37,2013-03-06 14:00:00,
2013-03-06 09:05:00,38.0,33.6,30.03,NNE,20,5.9,13.0,84,0.01,OVC,,0.05,83.0,WeatherDisplay:10.37,2013-03-06 14:05:00,
2013-03-06 09:10:00,38.1,34.0,30.03,NNE,20,6.8,15.0,85,0.00,OVC,,0.05,107.0,WeatherDisplay:10.37,2013-03-06 14:10:00,
2013-03-06 09:15:00,38.4,34.3,30.03,NNE,20,5.4,11.5,85,0.00,OVC,,0.05,104.0,WeatherDisplay:10.37,2013-03-06 14:15:00,
2013-03-06 09:21:00,38.4,34.6,30.03,NNE,20,6.3,11.5,86,0.00,OVC,,0.05,65.0,WeatherDisplay:10.37,2013-03-06 14:21:00,
2013-03-06 09:26:00,38.5,35.0,30.03,NNE,20,8.3,12.7,87,0.00,OVC,,0.05,153.0,WeatherDisplay:10.37,2013-03-06 14:26:00,
2013-03-06 09:31:00,38.5,35.0,30.04,NNE,20,10.1,16.1,87,0.00,OVC,,0.05,100.0,WeatherDisplay:10.37,2013-03-06 14:31:00,
2013-03-06 09:36:00,38.4,34.9,30.04,NNE,20,8.3,15.0,87,0.00,OVC,,0.05,79.0,WeatherDisplay:10.37,2013-03-06 14:36:00,
2013-03-06 09:41:00,38.2,35.0,30.04,NNE,20,8.0,18.4,88,0.00,OVC,,0.05,79.0,WeatherDisplay:10.37,2013-03-06 14:41:00,
2013-03-06 09:46:00,38.1,34.9,30.04,NNE,20,5.1,12.7,88,0.00,OVC,,0.05,109.0,WeatherDisplay:10.37,2013-03-06 14:46:00,
2013-03-06 09:51:00,38.3,35.1,30.04,NNE,20,7.5,11.0,88,0.00,OVC,,0.05,148.0,WeatherDisplay:10.37,2013-03-06 14:51:00,
2013-03-06 09:56:00,38.1,34.9,30.04,NNE,20,5.9,11.5,88,0.00,OVC,,0.05,128.0,WeatherDisplay:10.37,2013-03-06 14:56:00,
2013-03-06 10:01:00,37.6,34.4,30.03,NNE,20,7.7,13.8,88,0.00,OVC,,0.05,127.0,WeatherDisplay:10.37,2013-03-06 15:01:00,
2013-03-06 10:06:00,37.3,34.1,30.03,NNE,20,6.6,15.0,88,0.00,OVC,,0.05,118.0,WeatherDisplay:10.37,2013-03-06 15:06:00,
2013-03-06 10:11:00,37.4,33.9,30.03,NNE,20,7.2,13.8,87,0.00,OVC,,0.05,81.0,WeatherDisplay:10.37,2013-03-06 15:11:00,
2013-03-06 10:16:00,37.4,34.2,30.03,NNE,20,4.3,12.7,88,0.00,OVC,,0.05,139.0,WeatherDisplay:10.37,2013-03-06 15:16:00,
2013-03-06 10:21:00,37.4,34.2,30.03,NNE,20,6.3,15.0,88,0.00,OVC,,0.05,171.0,WeatherDisplay:10.37,2013-03-06 15:21:00,
2013-03-06 10:26:00,37.6,34.1,30.03,NNE,20,5.8,13.8,87,0.00,OVC,,0.05,190.0,WeatherDisplay:10.37,2013-03-06 15:26:00,
2013-03-06 10:31:00,37.8,34.6,30.03,NNE,20,8.6,24.2,88,0.00,OVC,,0.05,137.0,WeatherDisplay:10.37,2013-03-06 15:31:00,
2013-03-06 10:36:00,38.0,34.5,30.03,NNE,20,6.0,13.8,87,0.00,OVC,,0.05,186.0,WeatherDisplay:10.37,2013-03-06 15:36:00,
2013-03-06 10:41:00,38.3,34.5,30.03,NNE,20,9.6,26.5,86,0.00,OVC,,0.05,169.0,WeatherDisplay:10.37,2013-03-06 15:41:00,
2013-03-06 10:46:00,38.3,33.9,30.03,NNE,20,4.0,16.1,84,0.00,OVC,,0.05,243.0,WeatherDisplay:10.37,2013-03-06 15:46:00,
2013-03-06 10:51:00,38.7,34.0,30.03,NNE,20,8.6,13.8,83,0.00,OVC,,0.05,195.0,WeatherDisplay:10.37,2013-03-06 15:51:00,
2013-03-06 10:56:00,38.4,33.4,30.03,NNE,20,9.8,22.0,82,0.00,OVC,,0.05,176.0,WeatherDisplay:10.37,2013-03-06 15:56:00,
2013-03-06 11:01:00,38.3,33.0,30.02,NNE,20,12.9,19.6,81,0.00,OVC,,0.05,188.0,WeatherDisplay:10.37,2013-03-06 16:01:00,
2013-03-06 11:06:00,38.3,32.7,30.02,NNE,20,10.2,29.9,80,0.01,RA,,0.06,171.0,WeatherDisplay:10.37,2013-03-06 16:06:00,
2013-03-06 11:11:00,38.2,32.6,30.02,NNE,20,12.4,24.0,80,0.01,RA,,0.06,121.0,WeatherDisplay:10.37,2013-03-06 16:11:00,
2013-03-06 11:16:00,38.1,32.2,30.02,NNE,20,10.9,20.7,79,0.01,OVC,,0.06,104.0,WeatherDisplay:10.37,2013-03-06 16:16:00,
2013-03-06 11:21:00,38.1,32.5,30.02,NNE,20,8.6,19.6,80,0.01,OVC,,0.06,111.0,WeatherDisplay:10.37,2013-03-06 16:21:00,
2013-03-06 11:26:00,38.1,32.2,30.02,NNE,20,6.6,10.4,79,0.01,OVC,,0.06,160.0,WeatherDisplay:10.37,2013-03-06 16:26:00,
2013-03-06 11:31:00,38.2,32.6,30.02,NNE,20,10.0,15.0,80,0.01,OVC,,0.06,148.0,WeatherDisplay:10.37,2013-03-06 16:31:00,
2013-03-06 11:36:00,38.2,32.6,30.02,NNE,20,3.0,13.8,80,0.01,OVC,,0.06,137.0,WeatherDisplay:10.37,2013-03-06 16:36:00,
2013-03-06 11:41:00,38.3,32.7,30.02,NNE,20,9.6,21.0,80,0.01,OVC,,0.06,142.0,WeatherDisplay:10.37,2013-03-06 16:41:00,
2013-03-06 11:46:00,38.2,32.6,30.02,NNE,20,8.0,15.0,80,0.01,OVC,,0.06,151.0,WeatherDisplay:10.37,2013-03-06 16:46:00,
2013-03-06 11:51:00,38.2,32.6,30.02,NNE,20,10.0,15.0,80,0.01,OVC,,0.06,118.0,WeatherDisplay:10.37,2013-03-06 16:51:00,
2013-03-06 11:56:00,38.3,32.7,30.02,NNE,20,3.7,10.4,80,0.01,OVC,,0.06,111.0,WeatherDisplay:10.37,2013-03-06 16:56:00,
2013-03-06 12:01:00,38.3,32.7,30.02,NNE,20,12.2,18.4,80,0.01,OVC,,0.06,148.0,WeatherDisplay:10.37,2013-03-06 17:01:00,
2013-03-06 12:06:00,38.3,32.4,30.02,NNE,20,8.3,13.8,79,0.00,OVC,,0.06,149.0,WeatherDisplay:10.37,2013-03-06 17:06:00,
2013-03-06 12:11:00,38.3,32.7,30.02,NNE,20,6.2,13.8,80,0.00,OVC,,0.06,111.0,WeatherDisplay:10.37,2013-03-06 17:11:00,
2013-03-06 12:16:00,38.3,32.7,30.02,NNE,20,5.0,9.2,80,0.00,OVC,,0.06,146.0,WeatherDisplay:10.37,2013-03-06 17:16:00,
2013-03-06 12:21:00,38.6,33.0,30.02,NNE,20,12.1,21.9,80,0.00,BKN,,0.06,248.0,WeatherDisplay:10.37,2013-03-06 17:21:00,
2013-03-06 12:26:00,38.9,33.3,30.02,NNE,20,7.2,16.1,80,0.00,OVC,,0.06,230.0,WeatherDisplay:10.37,2013-03-06 17:26:00,
2013-03-06 12:31:00,39.1,33.1,30.02,NNE,20,2.3,5.8,79,0.00,OVC,,0.06,172.0,WeatherDisplay:10.37,2013-03-06 17:31:00,
2013-03-06 12:36:00,39.1,33.1,30.02,NNE,20,4.2,11.5,79,0.00,OVC,,0.06,113.0,WeatherDisplay:10.37,2013-03-06 17:36:00,
2013-03-06 12:41:00,38.8,32.8,30.02,NNE,20,8.9,15.0,79,0.00,OVC,,0.06,93.0,WeatherDisplay:10.37,2013-03-06 17:41:00,
2013-03-06 12:46:00,38.5,33.5,30.01,NNE,20,7.0,13.8,82,0.00,OVC,,0.06,171.0,WeatherDisplay:10.37,2013-03-06 17:46:00,
2013-03-06 12:51:00,38.6,33.3,30.01,NNE,20,6.5,11.5,81,0.00,OVC,,0.06,132.0,WeatherDisplay:10.37,2013-03-06 17:51:00,
2013-03-06 12:56:00,37.7,33.6,30.01,NNE,20,4.8,6.9,85,0.00,BKN,,0.06,288.0,WeatherDisplay:10.37,2013-03-06 17:56:00,
2013-03-06 13:01:00,37.9,34.4,30.01,NNE,20,4.9,10.4,87,0.00,OVC,,0.06,151.0,WeatherDisplay:10.37,2013-03-06 18:01:00,
2013-03-06 13:06:00,37.8,34.3,30.01,NNE,20,8.0,13.8,87,0.00,BKN,,0.06,251.0,WeatherDisplay:10.37,2013-03-06 18:06:00,
2013-03-06 13:11:00,38.2,34.7,30.01,NNE,20,9.9,21.9,87,0.00,FEW,,0.06,522.0,WeatherDisplay:10.37,2013-03-06 18:11:00,
2013-03-06 13:16:00,38.5,35.0,30.00,NNE,20,7.0,15.0,87,0.00,BKN,,0.06,255.0,WeatherDisplay:10.37,2013-03-06 18:16:00,
2013-03-06 13:21:00,38.8,35.3,30.00,NNE,20,4.9,11.5,87,0.00,OVC,,0.06,123.0,WeatherDisplay:10.37,2013-03-06 18:21:00,
2013-03-06 13:26:00,38.7,35.2,30.00,NNE,20,6.4,13.8,87,0.00,BKN,,0.06,308.0,WeatherDisplay:10.37,2013-03-06 18:26:00,
2013-03-06 13:31:00,39.4,35.9,30.00,NNE,20,4.7,9.2,87,0.00,OVC,,0.06,160.0,WeatherDisplay:10.37,2013-03-06 18:31:00,
2013-03-06 13:36:00,38.8,35.0,30.00,NNE,20,4.1,9.2,86,0.00,OVC,,0.06,121.0,WeatherDisplay:10.37,2013-03-06 18:36:00,
2013-03-06 13:41:00,38.3,34.8,30.00,NNE,20,6.6,11.5,87,0.00,BKN,,0.06,269.0,WeatherDisplay:10.37,2013-03-06 18:41:00,
2013-03-06 13:46:00,38.3,34.8,30.00,NNE,20,6.3,11.5,87,0.00,OVC,,0.06,181.0,WeatherDisplay:10.37,2013-03-06 18:46:00,
2013-03-06 13:51:00,38.4,34.9,30.00,NNE,20,8.9,16.1,87,0.00,OVC,,0.06,171.0,WeatherDisplay:10.37,2013-03-06 18:51:00,
2013-03-06 13:56:00,38.5,35.0,30.00,NNE,20,8.9,19.6,87,0.00,OVC,,0.06,246.0,WeatherDisplay:10.37,2013-03-06 18:56:00,
2013-03-06 14:01:00,38.8,35.0,30.00,NNE,20,8.6,17.3,86,0.00,OVC,,0.06,141.0,WeatherDisplay:10.37,2013-03-06 19:01:00,
2013-03-06 14:06:00,38.8,34.7,30.00,NNE,20,7.2,26.5,85,0.00,OVC,,0.06,158.0,WeatherDisplay:10.37,2013-03-06 19:06:00,
2013-03-06 14:11:00,39.1,35.3,30.00,NNE,20,7.7,12.7,86,0.00,OVC,,0.06,142.0,WeatherDisplay:10.37,2013-03-06 19:11:00,
2013-03-06 14:16:00,38.8,35.0,30.00,NNE,20,11.2,19.6,86,0.00,OVC,,0.06,72.0,WeatherDisplay:10.37,2013-03-06 19:16:00,
2013-03-06 14:21:00,38.3,34.5,30.00,NNE,20,8.8,15.0,86,0.00,OVC,,0.06,120.0,WeatherDisplay:10.37,2013-03-06 19:21:00,
2013-03-06 14:26:00,38.1,34.6,30.00,NNE,20,6.7,10.4,87,0.00,BKN,,0.06,227.0,WeatherDisplay:10.37,2013-03-06 19:26:00,
2013-03-06 14:31:00,37.9,34.4,30.00,NNE,20,6.0,6.9,87,0.00,OVC,,0.06,88.0,WeatherDisplay:10.37,2013-03-06 19:31:00,
2013-03-06 14:36:00,37.5,34.3,30.00,NNE,20,6.3,17.3,88,0.00,OVC,,0.06,141.0,WeatherDisplay:10.37,2013-03-06 19:36:00,
2013-03-06 14:41:00,37.7,34.5,30.00,NNE,20,8.7,12.7,88,0.00,OVC,,0.06,125.0,WeatherDisplay:10.37,2013-03-06 19:41:00,
2013-03-06 14:46:00,37.7,34.5,29.99,NNE,20,7.5,11.5,88,0.00,OVC,,0.06,97.0,WeatherDisplay:10.37,2013-03-06 19:46:00,
2013-03-06 14:51:00,37.9,34.4,29.99,NNE,20,7.1,11.5,87,0.00,OVC,,0.06,109.0,WeatherDisplay:10.37,2013-03-06 19:51:00,
2013-03-06 14:56:00,37.8,34.3,29.99,NNE,20,10.4,20.7,87,0.00,OVC,,0.06,56.0,WeatherDisplay:10.37,2013-03-06 19:56:00,
2013-03-06 15:01:00,37.2,33.7,30.00,NNE,20,10.6,18.4,87,0.00,OVC,,0.06,130.0,WeatherDisplay:10.37,2013-03-06 20:01:00,
2013-03-06 15:06:00,37.3,34.1,30.00,NNE,20,9.7,19.6,88,0.00,OVC,,0.06,141.0,WeatherDisplay:10.37,2013-03-06 20:06:00,
2013-03-06 15:11:00,37.4,34.2,30.00,NNE,20,11.5,21.9,88,0.00,OVC,,0.06,111.0,WeatherDisplay:10.37,2013-03-06 20:11:00,
2013-03-06 15:16:00,37.6,34.4,29.99,NNE,20,5.7,11.5,88,0.00,OVC,,0.06,76.0,WeatherDisplay:10.37,2013-03-06 20:16:00,
2013-03-06 15:21:00,37.4,34.2,29.99,NNE,20,11.4,16.1,88,0.00,OVC,,0.06,58.0,WeatherDisplay:10.37,2013-03-06 20:21:00,
2013-03-06 15:26:00,37.0,33.8,29.99,NNE,20,10.2,16.1,88,0.00,OVC,,0.06,111.0,WeatherDisplay:10.37,2013-03-06 20:26:00,
2013-03-06 15:31:00,37.0,33.8,30.00,NNE,20,4.8,11.5,88,0.00,BKN,,0.06,142.0,WeatherDisplay:10.37,2013-03-06 20:31:00,
2013-03-06 15:36:00,36.9,33.7,30.00,NNE,20,5.8,11.5,88,0.01,RA,,0.07,32.0,WeatherDisplay:10.37,2013-03-06 20:36:00,
2013-03-06 15:41:00,36.2,33.0,30.00,NNE,20,9.4,16.1,88,0.01,RA,,0.07,35.0,WeatherDisplay:10.37,2013-03-06 20:41:00,
2013-03-06 15:46:00,35.8,32.6,30.00,NNE,20,7.1,11.5,88,0.01,OVC,,0.07,56.0,WeatherDisplay:10.37,2013-03-06 20:46:00,
2013-03-06 15:51:00,36.1,32.6,30.00,NNE,20,7.2,13.8,87,0.02,RA,,0.08,46.0,WeatherDisplay:10.37,2013-03-06 20:51:00,
2013-03-06 15:56:00,36.3,32.8,30.00,NNE,20,9.5,13.8,87,0.02,RA,,0.08,56.0,WeatherDisplay:10.37,2013-03-06 20:56:00,
2013-03-06 16:01:00,36.5,33.0,29.99,NNE,20,7.1,16.1,87,0.02,OVC,,0.08,33.0,WeatherDisplay:10.37,2013-03-06 21:01:00,
2013-03-06 16:06:00,36.6,33.4,29.99,NNE,20,8.2,26.5,88,0.02,OVC,,0.08,23.0,WeatherDisplay:10.37,2013-03-06 21:06:00,
2013-03-06 16:11:00,36.7,33.5,29.99,NNE,20,6.2,11.5,88,0.02,OVC,,0.08,28.0,WeatherDisplay:10.37,2013-03-06 21:11:00,
2013-03-06 16:16:00,36.5,33.3,30.00,NNE,20,9.3,12.7,88,0.02,OVC,,0.08,19.0,WeatherDisplay:10.37,2013-03-06 21:16:00,
2013-03-06 16:21:00,36.4,33.2,30.00,NNE,20,5.1,11.5,88,0.02,OVC,,0.08,12.0,WeatherDisplay:10.37,2013-03-06 21:21:00,
2013-03-06 16:26:00,36.4,33.2,30.00,NNE,20,7.7,12.0,88,0.02,OVC,,0.08,32.0,WeatherDisplay:10.37,2013-03-06 21:26:00,
2013-03-06 16:31:00,36.4,33.2,30.00,NNE,20,8.4,14.0,88,0.02,OVC,,0.08,28.0,WeatherDisplay:10.37,2013-03-06 21:31:00,
2013-03-06 16:36:00,36.4,33.2,30.00,NNE,20,8.6,15.0,88,0.01,OVC,,0.08,30.0,WeatherDisplay:10.37,2013-03-06 21:36:00,
2013-03-06 16:41:00,36.4,33.2,30.00,NNE,20,5.4,10.4,88,0.01,OVC,,0.08,28.0,WeatherDisplay:10.37,2013-03-06 21:41:00,
2013-03-06 16:46:00,36.5,33.0,30.01,NNE,20,7.7,13.8,87,0.01,OVC,,0.08,12.0,WeatherDisplay:10.37,2013-03-06 21:46:00,
2013-03-06 16:51:00,36.4,33.2,30.01,NNE,20,7.3,13.8,88,0.00,OVC,,0.08,19.0,WeatherDisplay:10.37,2013-03-06 21:51:00,
2013-03-06 16:56:00,36.4,33.2,30.01,NNE,20,5.0,10.4,88,0.00,OVC,,0.08,19.0,WeatherDisplay:10.37,2013-03-06 21:56:00,
2013-03-06 17:01:00,36.4,33.2,30.02,NNE,20,8.1,12.7,88,0.00,OVC,,0.08,21.0,WeatherDisplay:10.37,2013-03-06 22:01:00,
2013-03-06 17:06:00,36.4,32.9,30.02,NNE,20,9.2,12.7,87,0.00,OVC,,0.08,18.0,WeatherDisplay:10.37,2013-03-06 22:06:00,
2013-03-06 17:11:00,36.4,32.9,30.02,NNE,20,7.4,11.5,87,0.00,OVC,,0.08,9.0,WeatherDisplay:10.37,2013-03-06 22:11:00,
2013-03-06 17:16:00,36.3,32.8,30.02,NNE,20,6.8,19.6,87,0.00,OVC,,0.08,9.0,WeatherDisplay:10.37,2013-03-06 22:16:00,
2013-03-06 17:21:00,36.2,32.7,30.02,NNE,20,7.4,16.1,87,0.00,OVC,,0.08,5.0,WeatherDisplay:10.37,2013-03-06 22:21:00,
2013-03-06 17:27:00,36.1,32.6,30.02,NNE,20,8.1,12.7,87,0.00,OVC,,0.08,0.0,WeatherDisplay:10.37,2013-03-06 22:27:00,
2013-03-06 17:32:00,35.9,32.7,30.01,NNE,20,10.2,18.4,88,0.00,OVC,,0.08,0.0,WeatherDisplay:10.37,2013-03-06 22:32:00,
2013-03-06 17:37:00,35.9,32.7,30.01,NNE,20,4.1,16.1,88,0.00,OVC,,0.08,0.0,WeatherDisplay:10.37,2013-03-06 22:37:00,
2013-03-06 17:42:00,35.9,32.7,30.01,NNE,20,7.0,26.5,88,0.00,OVC,,0.08,0.0,WeatherDisplay:10.37,2013-03-06 22:42:00,
2013-03-06 17:47:00,35.7,32.5,30.00,NNE,20,10.4,17.3,88,0.00,OVC,,0.08,0.0,WeatherDisplay:10.37,2013-03-06 22:47:00,
2013-03-06 17:52:00,35.5,32.3,30.00,NNE,20,6.5,11.5,88,0.00,OVC,,0.08,0.0,WeatherDisplay:10.37,2013-03-06 22:52:00,
2013-03-06 17:57:00,35.3,32.1,30.00,NNE,20,7.4,9.2,88,0.00,OVC,,0.08,0.0,WeatherDisplay:10.37,2013-03-06 22:57:00,
2013-03-06 18:02:00,35.2,32.0,30.00,NNE,20,6.9,11.5,88,0.00,CLR,,0.08,0.0,WeatherDisplay:10.37,2013-03-06 23:02:00,
2013-03-06 18:07:00,35.2,32.0,30.00,NNE,20,6.4,10.4,88,0.00,CLR,,0.08,0.0,WeatherDisplay:10.37,2013-03-06 23:07:00,
2013-03-06 18:12:00,35.2,31.7,30.00,NNE,20,4.9,17.3,87,0.00,CLR,,0.08,0.0,WeatherDisplay:10.37,2013-03-06 23:12:00,
2013-03-06 18:17:00,35.2,31.7,30.01,NNE,20,11.2,11.5,87,0.00,CLR,,0.08,0.0,WeatherDisplay:10.37,2013-03-06 23:17:00,
2013-03-06 18:22:00,35.2,31.7,30.01,NNE,20,5.2,17.3,87,0.00,CLR,,0.08,0.0,WeatherDisplay:10.37,2013-03-06 23:22:00,
2013-03-06 18:27:00,35.1,31.6,30.01,NNE,20,7.9,14.0,87,0.00,CLR,,0.08,0.0,WeatherDisplay:10.37,2013-03-06 23:27:00,
2013-03-06 18:32:00,35.1,31.6,30.02,NNE,20,7.4,10.4,87,0.00,CLR,,0.08,0.0,WeatherDisplay:10.37,2013-03-06 23:32:00,
2013-03-06 18:37:00,34.8,31.3,30.02,NNE,20,3.9,10.4,87,0.00,CLR,,0.08,0.0,WeatherDisplay:10.37,2013-03-06 23:37:00,
2013-03-06 18:42:00,34.4,30.9,30.02,NNE,20,7.0,11.0,87,0.00,CLR,,0.08,0.0,WeatherDisplay:10.37,2013-03-06 23:42:00,
2013-03-06 18:47:00,34.4,30.9,30.02,NNE,20,7.7,10.4,87,0.00,CLR,,0.08,0.0,WeatherDisplay:10.37,2013-03-06 23:47:00,
2013-03-06 18:52:00,34.6,31.1,30.02,NNE,20,6.8,9.2,87,0.00,CLR,,0.08,0.0,WeatherDisplay:10.37,2013-03-06 23:52:00,
2013-03-06 18:57:00,34.7,31.2,30.02,NNE,20,5.8,11.5,87,0.00,CLR,,0.08,0.0,WeatherDisplay:10.37,2013-03-06 23:57:00,
2013-03-06 19:02:00,34.8,31.3,30.02,NNE,20,4.6,12.7,87,0.00,CLR,,0.08,0.0,WeatherDisplay:10.37,2013-03-07 00:02:00,
2013-03-06 19:07:00,34.9,31.4,30.02,NNE,20,5.8,9.2,87,0.00,CLR,,0.08,0.0,WeatherDisplay:10.37,2013-03-07 00:07:00,
2013-03-06 19:12:00,35.0,31.5,30.02,NNE,20,6.5,15.0,87,0.00,CLR,,0.08,0.0,WeatherDisplay:10.37,2013-03-07 00:12:00,
2013-03-06 19:17:00,35.0,31.2,30.02,NNE,20,9.3,13.8,86,0.00,CLR,,0.09,0.0,WeatherDisplay:10.37,2013-03-07 00:17:00,
2013-03-06 19:22:00,35.1,31.3,30.02,NNE,20,10.6,10.6,86,0.01,RA,,0.09,0.0,WeatherDisplay:10.37,2013-03-07 00:22:00,
2013-03-06 19:27:00,35.1,31.3,30.02,NNE,20,6.4,11.0,86,0.01,RA,,0.09,0.0,WeatherDisplay:10.37,2013-03-07 00:27:00,
2013-03-06 19:32:00,35.0,31.2,30.02,NNE,20,5.4,17.3,86,0.01,CLR,,0.09,0.0,WeatherDisplay:10.37,2013-03-07 00:32:00,
2013-03-06 19:37:00,35.1,31.3,30.02,NNE,20,7.7,11.5,86,0.01,CLR,,0.09,0.0,WeatherDisplay:10.37,2013-03-07 00:37:00,
2013-03-06 19:42:00,35.0,31.2,30.02,NNE,15,5.9,15.0,86,0.01,CLR,,0.09,0.0,WeatherDisplay:10.37,2013-03-07 00:42:00,
2013-03-06 19:47:00,35.0,31.2,30.02,NNE,20,7.9,14.0,86,0.01,CLR,,0.09,0.0,WeatherDisplay:10.37,2013-03-07 00:47:00,
2013-03-06 19:52:00,34.9,31.1,30.02,NNE,20,6.3,15.0,86,0.01,CLR,,0.09,0.0,WeatherDisplay:10.37,2013-03-07 00:52:00,
2013-03-06 19:57:00,34.8,31.0,30.02,NNE,20,11.4,13.8,86,0.01,CLR,,0.09,0.0,WeatherDisplay:10.37,2013-03-07 00:57:00,
2013-03-06 20:02:00,34.9,31.1,30.02,NNE,20,8.3,11.5,86,0.01,CLR,,0.09,0.0,WeatherDisplay:10.37,2013-03-07 01:02:00,
2013-03-06 20:07:00,34.9,31.1,30.02,NNE,20,10.6,20.0,86,0.01,CLR,,0.09,0.0,WeatherDisplay:10.37,2013-03-07 01:07:00,
2013-03-06 20:12:00,34.8,31.0,30.02,NNE,20,7.5,13.8,86,0.01,CLR,,0.09,0.0,WeatherDisplay:10.37,2013-03-07 01:12:00,
2013-03-06 20:17:00,34.8,31.0,30.02,NNE,20,7.4,12.7,86,0.00,CLR,,0.09,0.0,WeatherDisplay:10.37,2013-03-07 01:17:00,
2013-03-06 20:22:00,34.8,31.0,30.02,NNE,20,9.0,18.0,86,0.00,CLR,,0.09,0.0,WeatherDisplay:10.37,2013-03-07 01:22:00,
2013-03-06 20:27:00,34.8,31.0,30.02,NNE,20,8.8,18.4,86,0.01,RA,,0.10,0.0,WeatherDisplay:10.37,2013-03-07 01:27:00,
2013-03-06 20:32:00,34.8,31.0,30.01,NNE,20,5.8,12.7,86,0.01,RA,,0.10,0.0,WeatherDisplay:10.37,2013-03-07 01:32:00,
2013-03-06 20:37:00,34.8,31.0,30.01,NNE,20,5.6,13.8,86,0.01,CLR,,0.10,0.0,WeatherDisplay:10.37,2013-03-07 01:37:00,
2013-03-06 20:42:00,34.9,31.1,30.01,NNE,20,8.4,15.0,86,0.01,CLR,,0.10,0.0,WeatherDisplay:10.37,2013-03-07 01:42:00,
2013-03-06 20:47:00,34.8,31.0,30.00,NNE,20,6.1,11.5,86,0.01,CLR,,0.10,0.0,WeatherDisplay:10.37,2013-03-07 01:47:00,
2013-03-06 20:52:00,34.7,30.9,30.00,NNE,20,6.4,11.5,86,0.01,CLR,,0.10,0.0,WeatherDisplay:10.37,2013-03-07 01:52:00,
2013-03-06 20:57:00,34.6,30.8,30.00,NNE,20,7.7,11.5,86,0.01,CLR,,0.10,0.0,WeatherDisplay:10.37,2013-03-07 01:57:00,
2013-03-06 21:02:00,34.4,30.6,30.01,NNE,20,9.8,19.6,86,0.01,CLR,,0.10,0.0,WeatherDisplay:10.37,2013-03-07 02:02:00,
2013-03-06 21:07:00,34.5,30.7,30.01,NNE,20,7.5,10.4,86,0.01,CLR,,0.10,0.0,WeatherDisplay:10.37,2013-03-07 02:07:00,
2013-03-06 21:12:00,34.4,30.6,30.01,NNE,20,10.1,13.8,86,0.01,CLR,,0.10,0.0,WeatherDisplay:10.37,2013-03-07 02:12:00,
2013-03-06 21:17:00,34.4,30.6,30.00,NNE,20,9.1,15.0,86,0.01,CLR,,0.10,0.0,WeatherDisplay:10.37,2013-03-07 02:17:00,
2013-03-06 21:22:00,34.4,30.6,30.00,NNE,20,8.9,15.0,86,0.01,CLR,,0.10,0.0,WeatherDisplay:10.37,2013-03-07 02:22:00,
2013-03-06 21:27:00,34.4,30.6,30.00,NNE,20,9.9,11.5,86,0.00,CLR,,0.10,0.0,WeatherDisplay:10.37,2013-03-07 02:27:00,
2013-03-06 21:32:00,34.4,30.6,30.00,NNE,20,8.0,12.7,86,0.00,CLR,,0.10,0.0,WeatherDisplay:10.37,2013-03-07 02:32:00,
2013-03-06 21:37:00,34.6,30.8,30.00,NNE,20,6.2,11.5,86,0.00,CLR,,0.10,0.0,WeatherDisplay:10.37,2013-03-07 02:37:00,
2013-03-06 21:42:00,34.7,30.9,30.00,NNE,20,6.6,11.5,86,0.00,CLR,,0.10,0.0,WeatherDisplay:10.37,2013-03-07 02:42:00,
2013-03-06 21:47:00,34.8,31.3,30.00,NNE,20,10.5,13.8,87,0.00,CLR,,0.10,0.0,WeatherDisplay:10.37,2013-03-07 02:47:00,
2013-03-06 21:52:00,35.0,31.5,30.00,NNE,20,9.8,18.4,87,0.00,CLR,,0.10,0.0,WeatherDisplay:10.37,2013-03-07 02:52:00,
2013-03-06 21:57:00,35.2,32.0,30.00,NNE,20,9.3,19.6,88,0.00,CLR,,0.10,0.0,WeatherDisplay:10.37,2013-03-07 02:57:00,
2013-03-06 22:02:00,35.3,32.1,30.00,NNE,20,7.0,15.0,88,0.00,CLR,,0.10,0.0,WeatherDisplay:10.37,2013-03-07 03:02:00,
2013-03-06 22:07:00,35.4,32.2,30.00,NNE,20,11.0,17.3,88,0.00,CLR,,0.10,0.0,WeatherDisplay:10.37,2013-03-07 03:07:00,
2013-03-06 22:12:00,35.4,32.2,30.00,NNE,20,6.9,12.7,88,0.00,CLR,,0.10,0.0,WeatherDisplay:10.37,2013-03-07 03:12:00,
2013-03-06 22:17:00,35.4,32.2,30.00,NNE,20,12.1,19.6,88,0.00,CLR,,0.10,0.0,WeatherDisplay:10.37,2013-03-07 03:17:00,
2013-03-06 22:22:00,35.4,32.2,30.00,NNE,20,9.6,17.3,88,0.00,CLR,,0.10,0.0,WeatherDisplay:10.37,2013-03-07 03:22:00,
2013-03-06 22:27:00,35.2,32.0,30.00,NNE,20,8.4,16.1,88,0.00,CLR,,0.10,0.0,WeatherDisplay:10.37,2013-03-07 03:27:00,
2013-03-06 22:32:00,34.9,31.7,30.00,NNE,20,7.2,12.0,88,0.00,CLR,,0.10,0.0,WeatherDisplay:10.37,2013-03-07 03:32:00,
2013-03-06 22:37:00,34.7,31.5,30.00,NNE,20,10.0,19.6,88,0.00,CLR,,0.10,0.0,WeatherDisplay:10.37,2013-03-07 03:37:00,
2013-03-06 22:42:00,34.6,31.4,30.00,NNE,20,6.5,12.7,88,0.00,CLR,,0.10,0.0,WeatherDisplay:10.37,2013-03-07 03:42:00,
2013-03-06 22:47:00,34.5,31.3,30.00,NNE,20,5.9,15.0,88,0.00,CLR,,0.10,0.0,WeatherDisplay:10.37,2013-03-07 03:47:00,
2013-03-06 22:52:00,34.4,31.2,30.00,NNE,20,8.3,16.0,88,0.00,CLR,,0.10,0.0,WeatherDisplay:10.37,2013-03-07 03:52:00,
2013-03-06 22:57:00,34.6,31.4,30.00,NNE,20,13.7,21.9,88,0.00,CLR,,0.10,0.0,WeatherDisplay:10.37,2013-03-07 03:57:00,
2013-03-06 23:02:00,34.8,31.6,30.00,NNE,20,4.6,16.1,88,0.00,CLR,,0.10,0.0,WeatherDisplay:10.37,2013-03-07 04:02:00,
2013-03-06 23:07:00,34.9,31.7,30.00,NNE,20,5.8,14.0,88,0.00,CLR,,0.10,0.0,WeatherDisplay:10.37,2013-03-07 04:07:00,
2013-03-06 23:12:00,34.8,31.6,30.00,NNE,20,6.4,10.4,88,0.00,CLR,,0.10,0.0,WeatherDisplay:10.37,2013-03-07 04:12:00,
2013-03-06 23:17:00,34.7,31.5,30.00,NNE,20,12.1,19.6,88,0.00,CLR,,0.10,0.0,WeatherDisplay:10.37,2013-03-07 04:17:00,
2013-03-06 23:22:00,34.7,31.5,30.00,NNE,20,6.4,10.4,88,0.00,CLR,,0.10,0.0,WeatherDisplay:10.37,2013-03-07 04:22:00,
2013-03-06 23:27:00,34.4,31.2,30.00,NNE,20,7.9,14.0,88,0.00,CLR,,0.10,0.0,WeatherDisplay:10.37,2013-03-07 04:27:00,
2013-03-06 23:32:00,34.4,31.2,30.00,NNE,20,9.5,12.7,88,0.00,CLR,,0.10,0.0,WeatherDisplay:10.37,2013-03-07 04:32:00,
2013-03-06 23:37:00,34.4,31.2,30.00,NNE,20,7.8,17.3,88,0.00,CLR,,0.10,0.0,WeatherDisplay:10.37,2013-03-07 04:37:00,
2013-03-06 23:42:00,34.4,30.9,30.00,NNE,20,6.3,17.3,87,0.00,CLR,,0.10,0.0,WeatherDisplay:10.37,2013-03-07 04:42:00,
2013-03-06 23:47:00,34.4,30.9,30.00,NNE,20,4.8,9.2,87,0.00,CLR,,0.10,0.0,WeatherDisplay:10.37,2013-03-07 04:47:00,
2013-03-06 23:52:00,34.4,30.9,30.00,NNE,20,5.8,11.5,87,0.00,CLR,,0.10,0.0,WeatherDisplay:10.37,2013-03-07 04:52:00,
2013-03-06 23:57:00,34.4,30.9,30.00,NNE,20,5.5,13.8,87,0.00,CLR,,0.10,0.0,WeatherDisplay:10.37,2013-03-07 04:57:00,